Time;durP1;ratioP1;P1;durP2;ratioP2;P2;SDS_P1;SDS_P2;PMS_P1;PMS_P2;Temp;Humidity;BMP_temperature;BMP_pressure;BME280_temperature;BME280_humidity;BME280_pressure;Samples;Min_cycle;Max_cycle;Signal;HPM_P1;HPM_P2
2022/07/18 00:01:07;;;;;;;;;;;;;;;11.28;60.65;98199.25;110494;1244;71330;-68
2022/07/18 00:03:36;;;;;;;;;;;;;;;11.08;61.70;98201.58;110528;1244;68550;-71
2022/07/18 00:06:06;;;;;;;;;;;;;;;10.88;62.17;98208.38;110294;1244;68780;-69
2022/07/18 00:08:35;;;;;;;;;;;;;;;10.70;63.70;98204.58;110520;1244;59751;-69
2022/07/18 00:11:05;;;;;;;;;;;;;;;10.55;66.84;98202.72;110489;1244;59706;-69
2022/07/18 00:13:34;;;;;;;;;;;;;;;10.48;67.27;98203.65;110261;1245;69836;-70
2022/07/18 00:16:04;;;;;;;;;;;;;;;10.44;67.61;98206.52;110525;1244;67431;-70
2022/07/18 00:18:33;;;;;;;;;;;;;;;10.40;68.15;98205.90;110184;1247;69414;-71
2022/07/18 00:21:03;;;;;;;;;;;;;;;10.34;68.40;98202.39;110436;1244;59703;-68
2022/07/18 00:23:33;;;;;;;;;;;;;;;10.30;68.19;98194.11;110554;1244;59719;-71
2022/07/18 00:26:02;;;;;;;;;;;;;;;10.24;68.39;98195.19;110265;1247;71506;-68
2022/07/18 00:28:32;;;;;;;;;;;;;;;10.19;66.35;98201.50;110458;1244;67746;-68
2022/07/18 00:31:05;;;;;;;;;;;;;;;10.17;65.44;98197.83;110290;1246;69776;-70
2022/07/18 00:33:34;;;;;;;;;;;;;;;10.16;65.69;98204.98;110466;1244;59773;-70
2022/07/18 00:36:05;;;;;;;;;;;;;;;10.14;64.30;98209.48;110332;1245;59741;-69
2022/07/18 00:38:34;;;;;;;;;;;;;;;10.12;64.59;98213.76;110464;1244;71420;-73
2022/07/18 00:41:04;;;;;;;;;;;;;;;10.12;67.32;98217.39;110549;1244;67919;-71
2022/07/18 00:43:34;;;;;;;;;;;;;;;10.14;67.87;98218.20;110526;1244;69407;-69
2022/07/18 00:46:04;;;;;;;;;;;;;;;10.13;68.15;98216.68;110266;1244;59692;-69
2022/07/18 00:48:35;;;;;;;;;;;;;;;10.10;66.90;98214.73;110186;1247;59677;-69
2022/07/18 00:51:05;;;;;;;;;;;;;;;10.09;67.48;98215.52;110177;1247;71547;-70
2022/07/18 00:53:34;;;;;;;;;;;;;;;10.09;68.37;98217.77;110386;1244;68448;-71
2022/07/18 00:56:06;;;;;;;;;;;;;;;10.10;69.97;98217.70;110373;1244;69377;-71
2022/07/18 00:58:36;;;;;;;;;;;;;;;10.09;66.43;98221.94;110474;1244;59754;-70
2022/07/18 01:03:54;;;;;;;;;;;;;;;9.98;65.61;98217.39;110398;1244;70734;-71
2022/07/18 01:06:24;;;;;;;;;;;;;;;9.89;65.58;98217.55;110260;1244;68522;-69
2022/07/18 01:08:53;;;;;;;;;;;;;;;9.83;68.45;98220.67;110553;1244;67841;-69
2022/07/18 01:11:22;;;;;;;;;;;;;;;9.79;67.47;98217.73;110537;1244;59702;-70
2022/07/18 01:13:52;;;;;;;;;;;;;;;9.75;67.81;98220.41;110474;1244;59701;-69
2022/07/18 01:16:21;;;;;;;;;;;;;;;9.72;69.36;98221.81;110264;1244;71831;-69
2022/07/18 01:18:52;;;;;;;;;;;;;;;9.67;70.18;98225.40;110412;1244;68256;-71
2022/07/18 01:21:21;;;;;;;;;;;;;;;9.61;68.35;98218.93;110425;1244;69430;-70
2022/07/18 01:23:51;;;;;;;;;;;;;;;9.56;71.58;98223.92;110185;1247;59725;-70
2022/07/18 01:26:20;;;;;;;;;;;;;;;9.50;72.53;98222.39;110465;1244;59673;-71
2022/07/18 01:28:50;;;;;;;;;;;;;;;9.43;71.49;98219.27;110232;1247;70646;-70
2022/07/18 01:31:20;;;;;;;;;;;;;;;9.35;72.71;98222.13;110258;1244;67779;-69
2022/07/18 01:33:49;;;;;;;;;;;;;;;9.30;73.09;98221.20;110150;1247;68448;-70
2022/07/18 01:36:19;;;;;;;;;;;;;;;9.26;73.02;98224.40;110474;1244;59699;-72
2022/07/18 01:38:48;;;;;;;;;;;;;;;9.21;72.17;98226.71;110554;1244;59678;-69
2022/07/18 01:41:19;;;;;;;;;;;;;;;9.17;74.19;98225.39;110570;1244;71355;-70
2022/07/18 01:43:49;;;;;;;;;;;;;;;9.12;74.46;98223.23;110230;1246;68517;-68
2022/07/18 01:46:18;;;;;;;;;;;;;;;9.11;74.18;98222.23;110343;1244;69495;-70
2022/07/18 01:48:48;;;;;;;;;;;;;;;9.09;74.17;98217.59;110233;1245;59631;-71
2022/07/18 01:51:17;;;;;;;;;;;;;;;9.08;75.10;98222.71;110506;1244;59682;-69
2022/07/18 01:53:54;;;;;;;;;;;;;;;9.08;74.99;98223.76;110222;1244;71433;-69
2022/07/18 01:56:24;;;;;;;;;;;;;;;9.09;73.78;98224.39;110498;1244;68628;-75
2022/07/18 01:58:56;;;;;;;;;;;;;;;9.08;74.94;98221.67;110215;1244;69437;-69
2022/07/18 02:01:26;;;;;;;;;;;;;;;9.08;75.21;98222.71;110485;1244;59732;-69
2022/07/18 02:03:56;;;;;;;;;;;;;;;9.07;75.21;98226.96;110270;1246;59755;-70
2022/07/18 02:06:28;;;;;;;;;;;;;;;9.05;74.55;98232.45;110510;1244;71709;-69
2022/07/18 02:08:59;;;;;;;;;;;;;;;9.01;70.76;98230.39;110482;1244;68601;-69
2022/07/18 02:11:30;;;;;;;;;;;;;;;8.98;69.29;98231.10;110276;1247;69389;-70
2022/07/18 02:13:59;;;;;;;;;;;;;;;8.93;69.16;98231.52;110309;1244;59750;-68
2022/07/18 02:16:28;;;;;;;;;;;;;;;8.90;70.05;98231.69;110306;1246;59681;-68
2022/07/18 02:18:58;;;;;;;;;;;;;;;8.88;70.13;98234.95;110344;1244;70779;-69
2022/07/18 02:21:28;;;;;;;;;;;;;;;8.85;72.96;98230.90;110263;1246;67701;-70
2022/07/18 02:23:59;;;;;;;;;;;;;;;8.81;72.40;98234.06;110521;1244;68385;-68
2022/07/18 02:26:30;;;;;;;;;;;;;;;8.74;74.16;98236.36;110570;1244;59691;-69
2022/07/18 02:29:01;;;;;;;;;;;;;;;8.68;76.46;98238.77;110342;1244;59681;-70
2022/07/18 02:31:32;;;;;;;;;;;;;;;8.64;75.55;98241.20;110185;1247;70176;-69
2022/07/18 02:34:09;;;;;;;;;;;;;;;8.61;76.23;98245.04;110323;1245;68750;-69
2022/07/18 02:36:40;;;;;;;;;;;;;;;8.56;75.40;98242.82;110234;1247;69340;-69
2022/07/18 02:39:14;;;;;;;;;;;;;;;8.55;77.59;98242.90;110559;1244;59676;-69
2022/07/18 02:41:44;;;;;;;;;;;;;;;8.54;77.27;98245.92;110298;1245;59693;-69
2022/07/18 02:44:14;;;;;;;;;;;;;;;8.50;77.16;98249.05;110266;1244;71506;-68
2022/07/18 02:46:44;;;;;;;;;;;;;;;8.45;77.54;98254.22;110266;1247;68592;-71
2022/07/18 02:49:27;;;;;;;;;;;;;;;8.41;77.42;98254.72;110265;1247;69348;-68
2022/07/18 02:51:58;;;;;;;;;;;;;;;8.41;77.14;98259.26;110454;1244;59703;-69
2022/07/18 02:54:28;;;;;;;;;;;;;;;8.42;78.48;98257.31;110326;1244;59672;-71
2022/07/18 02:56:58;;;;;;;;;;;;;;;8.41;78.10;98259.08;110380;1245;70449;-68
2022/07/18 02:59:28;;;;;;;;;;;;;;;8.37;77.73;98259.78;110334;1245;68508;-69
2022/07/18 03:01:58;;;;;;;;;;;;;;;8.36;79.20;98264.71;110267;1244;69229;-69
2022/07/18 03:04:28;;;;;;;;;;;;;;;8.37;78.72;98264.30;110178;1247;59749;-69
2022/07/18 03:06:58;;;;;;;;;;;;;;;8.40;78.99;98268.82;110294;1244;59692;-68
2022/07/18 03:09:27;;;;;;;;;;;;;;;8.38;77.71;98270.86;110217;1245;70713;-68
2022/07/18 03:11:58;;;;;;;;;;;;;;;8.35;77.54;98273.56;110477;1244;68655;-69
2022/07/18 03:14:27;;;;;;;;;;;;;;;8.37;79.56;98268.83;110329;1244;68447;-70
2022/07/18 03:16:57;;;;;;;;;;;;;;;8.40;77.03;98272.33;110249;1245;59770;-69
2022/07/18 03:19:27;;;;;;;;;;;;;;;8.45;77.83;98275.05;110376;1245;59748;-70
2022/07/18 03:21:57;;;;;;;;;;;;;;;8.47;76.50;98274.98;110446;1244;70759;-68
2022/07/18 03:24:26;;;;;;;;;;;;;;;8.47;76.15;98274.43;110505;1244;67850;-69
2022/07/18 03:26:57;;;;;;;;;;;;;;;8.46;75.28;98280.55;110185;1245;69476;-67
2022/07/18 03:29:27;;;;;;;;;;;;;;;8.43;75.31;98286.93;110210;1247;59719;-70
2022/07/18 03:31:57;;;;;;;;;;;;;;;8.42;78.18;98287.85;110273;1247;59722;-69
2022/07/18 03:34:26;;;;;;;;;;;;;;;8.45;76.80;98284.61;110251;1244;71495;-69
2022/07/18 03:36:56;;;;;;;;;;;;;;;8.46;78.08;98286.79;110490;1244;67809;-69
2022/07/18 03:39:26;;;;;;;;;;;;;;;8.50;78.75;98288.52;110343;1244;69399;-69
2022/07/18 03:41:55;;;;;;;;;;;;;;;8.58;79.45;98290.50;110297;1247;59755;-69
2022/07/18 03:44:24;;;;;;;;;;;;;;;8.68;79.04;98289.88;110461;1244;59664;-68
2022/07/18 03:46:54;;;;;;;;;;;;;;;8.76;79.28;98285.27;110547;1244;70591;-67
2022/07/18 03:49:24;;;;;;;;;;;;;;;8.85;78.56;98288.48;110298;1246;67724;-68
2022/07/18 03:51:55;;;;;;;;;;;;;;;8.89;77.12;98293.44;110287;1247;69394;-68
2022/07/18 03:54:24;;;;;;;;;;;;;;;8.92;77.08;98293.15;110374;1244;59598;-69
2022/07/18 03:56:54;;;;;;;;;;;;;;;8.96;76.52;98296.23;110335;1244;59688;-69
2022/07/18 03:59:24;;;;;;;;;;;;;;;9.00;76.44;98295.34;110349;1244;71536;-69
2022/07/18 04:01:53;;;;;;;;;;;;;;;9.05;76.67;98294.70;110279;1244;67621;-70
2022/07/18 04:04:22;;;;;;;;;;;;;;;9.11;75.91;98296.97;110237;1246;68521;-69
2022/07/18 04:06:51;;;;;;;;;;;;;;;9.19;76.01;98294.64;110429;1245;60111;-71
2022/07/18 04:09:21;;;;;;;;;;;;;;;9.29;74.88;98291.71;110252;1247;59683;-69
2022/07/18 04:11:51;;;;;;;;;;;;;;;9.39;72.87;98290.98;110061;1249;70523;-66
2022/07/18 04:14:22;;;;;;;;;;;;;;;9.50;73.48;98291.06;110255;1245;68449;-69
2022/07/18 04:16:51;;;;;;;;;;;;;;;9.62;72.28;98294.41;110224;1247;69256;-69
2022/07/18 04:19:23;;;;;;;;;;;;;;;9.74;74.18;98295.51;110310;1245;59712;-69
2022/07/18 04:21:53;;;;;;;;;;;;;;;9.88;74.22;98294.19;110397;1244;59757;-72
2022/07/18 04:24:22;;;;;;;;;;;;;;;10.00;73.83;98294.54;110203;1247;71520;-70
2022/07/18 04:26:51;;;;;;;;;;;;;;;10.16;73.88;98289.98;110550;1244;68393;-69
2022/07/18 04:29:20;;;;;;;;;;;;;;;10.36;73.45;98293.92;110423;1244;69434;-70
2022/07/18 04:31:50;;;;;;;;;;;;;;;10.56;72.51;98299.56;110419;1244;59744;-69
2022/07/18 04:34:19;;;;;;;;;;;;;;;10.75;72.28;98298.82;110189;1247;59746;-69
2022/07/18 04:36:48;;;;;;;;;;;;;;;10.88;71.37;98297.87;110294;1245;71595;-69
2022/07/18 04:39:17;;;;;;;;;;;;;;;11.03;71.29;98298.52;110330;1244;68694;-68
2022/07/18 04:41:47;;;;;;;;;;;;;;;11.18;70.41;98299.67;110518;1244;69984;-69
2022/07/18 04:44:16;;;;;;;;;;;;;;;11.34;70.44;98302.73;110517;1244;59677;-68
2022/07/18 04:46:45;;;;;;;;;;;;;;;11.49;69.35;98299.52;110543;1244;59686;-71
2022/07/18 04:49:15;;;;;;;;;;;;;;;11.63;68.78;98294.46;110281;1244;71345;-71
2022/07/18 04:51:44;;;;;;;;;;;;;;;11.76;68.53;98297.64;110319;1246;68595;-69
2022/07/18 04:54:13;;;;;;;;;;;;;;;11.83;68.24;98294.06;110471;1245;68420;-70
2022/07/18 04:56:42;;;;;;;;;;;;;;;11.96;67.87;98297.81;110211;1244;60138;-69
2022/07/18 04:59:11;;;;;;;;;;;;;;;12.11;67.38;98294.59;110528;1244;59683;-71
2022/07/18 05:01:40;;;;;;;;;;;;;;;12.24;67.08;98290.70;110221;1245;70606;-70
2022/07/18 05:04:09;;;;;;;;;;;;;;;12.42;66.74;98292.71;110318;1244;68644;-70
2022/07/18 05:06:38;;;;;;;;;;;;;;;12.60;65.96;98293.60;110402;1244;69382;-69
2022/07/18 05:09:07;;;;;;;;;;;;;;;12.77;65.75;98295.80;110481;1244;59714;-69
2022/07/18 05:11:36;;;;;;;;;;;;;;;12.94;65.05;98297.05;110264;1244;59747;-69
2022/07/18 05:14:05;;;;;;;;;;;;;;;13.24;65.00;98300.40;110462;1244;71196;-71
2022/07/18 05:16:34;;;;;;;;;;;;;;;13.65;64.06;98300.86;110253;1247;68362;-71
2022/07/18 05:19:03;;;;;;;;;;;;;;;14.13;65.19;98299.34;110464;1244;69624;-69
2022/07/18 05:21:32;;;;;;;;;;;;;;;14.74;64.70;98302.05;110288;1244;59696;-69
2022/07/18 05:24:02;;;;;;;;;;;;;;;15.26;61.58;98304.89;110425;1244;59748;-70
2022/07/18 05:26:31;;;;;;;;;;;;;;;15.84;60.98;98300.67;110484;1244;72024;-67
2022/07/18 05:29:03;;;;;;;;;;;;;;;16.37;57.84;98294.98;110432;1244;67799;-70
2022/07/18 05:31:32;;;;;;;;;;;;;;;16.81;58.05;98293.73;110568;1244;68697;-70
2022/07/18 05:34:01;;;;;;;;;;;;;;;17.21;53.07;98294.98;110458;1245;59621;-69
2022/07/18 05:36:30;;;;;;;;;;;;;;;17.44;52.09;98297.23;110345;1244;59692;-70
2022/07/18 05:39:00;;;;;;;;;;;;;;;17.61;50.91;98291.61;110097;1249;71596;-69
2022/07/18 05:41:30;;;;;;;;;;;;;;;17.70;50.29;98288.41;110253;1247;67729;-70
2022/07/18 05:43:59;;;;;;;;;;;;;;;17.66;48.38;98291.41;110100;1247;69359;-70
2022/07/18 05:46:28;;;;;;;;;;;;;;;17.28;48.60;98294.52;110268;1244;59768;-70
2022/07/18 05:48:59;;;;;;;;;;;;;;;17.33;50.06;98292.14;110147;1247;59690;-69
2022/07/18 05:51:37;;;;;;;;;;;;;;;17.37;49.79;98293.36;110241;1247;70440;-69
2022/07/18 05:54:18;;;;;;;;;;;;;;;17.37;49.78;98294.31;110272;1247;68013;-70
2022/07/18 05:56:48;;;;;;;;;;;;;;;17.45;49.85;98293.42;110188;1247;69267;-69
2022/07/18 05:59:17;;;;;;;;;;;;;;;17.44;49.13;98292.27;110051;1247;59709;-69
2022/07/18 06:01:46;;;;;;;;;;;;;;;17.57;49.65;98290.77;110449;1244;60014;-70
2022/07/18 06:04:15;;;;;;;;;;;;;;;17.64;48.99;98296.66;110188;1244;70844;-72
2022/07/18 06:06:44;;;;;;;;;;;;;;;17.66;48.63;98295.42;110240;1246;68779;-69
2022/07/18 06:09:13;;;;;;;;;;;;;;;17.71;48.29;98296.75;110209;1247;67738;-68
2022/07/18 06:11:42;;;;;;;;;;;;;;;17.82;49.11;98296.66;110419;1245;59680;-73
2022/07/18 06:14:11;;;;;;;;;;;;;;;17.99;48.30;98297.48;110337;1244;59735;-69
2022/07/18 06:16:41;;;;;;;;;;;;;;;18.32;47.87;98299.63;110217;1247;71582;-69
2022/07/18 06:19:10;;;;;;;;;;;;;;;18.77;47.23;98297.84;110275;1247;68440;-69
2022/07/18 06:21:44;;;;;;;;;;;;;;;19.27;47.72;98294.56;110256;1247;68720;-69
2022/07/18 06:24:13;;;;;;;;;;;;;;;19.70;45.45;98296.48;110243;1246;59667;-68
2022/07/18 06:26:42;;;;;;;;;;;;;;;19.65;43.50;98300.54;110256;1247;59704;-69
2022/07/18 06:29:11;;;;;;;;;;;;;;;19.71;42.74;98298.85;110155;1248;70810;-70
2022/07/18 06:31:40;;;;;;;;;;;;;;;19.91;42.74;98294.31;110200;1247;68120;-71
2022/07/18 06:34:09;;;;;;;;;;;;;;;20.22;42.18;98294.77;110296;1247;69448;-69
2022/07/18 06:36:37;;;;;;;;;;;;;;;20.30;41.84;98294.38;110259;1244;59716;-70
2022/07/18 06:39:10;;;;;;;;;;;;;;;20.40;41.56;98291.21;110261;1244;59741;-69
2022/07/18 06:41:39;;;;;;;;;;;;;;;20.94;41.32;98293.34;110481;1244;71569;-71
2022/07/18 06:44:13;;;;;;;;;;;;;;;21.65;42.14;98291.50;110368;1244;67809;-71
2022/07/18 06:46:42;;;;;;;;;;;;;;;22.02;39.29;98291.64;110590;1244;68649;-69
2022/07/18 06:49:11;;;;;;;;;;;;;;;22.39;39.97;98290.77;110342;1245;59760;-71
2022/07/18 06:51:40;;;;;;;;;;;;;;;22.79;39.45;98288.87;110262;1250;60056;-73
2022/07/18 06:54:09;;;;;;;;;;;;;;;23.21;37.78;98288.06;110175;1247;71579;-71
2022/07/18 06:56:38;;;;;;;;;;;;;;;23.37;36.86;98288.00;110419;1244;67010;-70
2022/07/18 06:59:07;;;;;;;;;;;;;;;23.57;36.19;98289.48;110541;1244;68742;-69
2022/07/18 07:01:36;;;;;;;;;;;;;;;22.98;36.38;98286.14;110502;1244;59693;-69
2022/07/18 07:04:05;;;;;;;;;;;;;;;23.09;35.97;98282.98;110611;1244;59747;-71
2022/07/18 07:06:34;;;;;;;;;;;;;;;23.51;35.77;98282.77;110244;1247;71559;-69
2022/07/18 07:09:03;;;;;;;;;;;;;;;23.73;35.31;98280.45;110219;1247;67663;-69
2022/07/18 07:11:32;;;;;;;;;;;;;;;23.01;36.01;98281.94;110382;1244;69509;-68
2022/07/18 07:14:01;;;;;;;;;;;;;;;22.85;36.23;98283.48;110469;1244;59764;-69
2022/07/18 07:16:30;;;;;;;;;;;;;;;22.90;36.29;98282.46;110315;1244;59609;-70
2022/07/18 07:18:59;;;;;;;;;;;;;;;23.20;35.84;98280.55;110511;1244;70794;-70
2022/07/18 07:21:28;;;;;;;;;;;;;;;23.26;35.41;98276.77;110183;1247;68574;-74
2022/07/18 07:23:57;;;;;;;;;;;;;;;23.60;35.30;98275.48;110495;1244;68658;-67
2022/07/18 07:26:26;;;;;;;;;;;;;;;23.69;34.52;98277.28;110411;1244;59748;-71
2022/07/18 07:28:55;;;;;;;;;;;;;;;23.95;34.47;98271.66;110236;1247;59741;-70
2022/07/18 07:31:25;;;;;;;;;;;;;;;24.59;34.12;98271.24;110463;1244;71593;-69
2022/07/18 07:33:54;;;;;;;;;;;;;;;25.15;32.86;98270.06;110386;1245;68570;-68
2022/07/18 07:36:24;;;;;;;;;;;;;;;25.30;31.66;98267.48;110353;1245;69354;-70
2022/07/18 07:38:53;;;;;;;;;;;;;;;25.24;31.56;98269.63;109670;1244;838211;-69
2022/07/18 07:41:21;;;;;;;;;;;;;;;25.24;31.56;98263.43;110416;1244;59681;-71
2022/07/18 07:43:50;;;;;;;;;;;;;;;25.48;31.35;98264.48;110464;1244;72358;-71
2022/07/18 07:46:19;;;;;;;;;;;;;;;25.72;31.04;98264.35;110229;1247;68508;-69
2022/07/18 07:48:48;;;;;;;;;;;;;;;25.84;30.37;98263.23;110484;1244;67630;-69
2022/07/18 07:51:17;;;;;;;;;;;;;;;26.24;31.15;98260.98;110285;1247;59684;-69
2022/07/18 07:53:52;;;;;;;;;;;;;;;26.37;29.69;98260.31;110532;1244;59631;-69
2022/07/18 07:56:21;;;;;;;;;;;;;;;26.09;29.24;98262.52;110221;1247;70880;-71
2022/07/18 07:58:50;;;;;;;;;;;;;;;25.80;29.41;98260.41;110279;1247;67778;-71
2022/07/18 08:01:19;;;;;;;;;;;;;;;26.01;29.60;98257.86;110355;1244;69432;-69
2022/07/18 08:03:49;;;;;;;;;;;;;;;26.28;29.47;98263.02;110444;1244;59674;-70
2022/07/18 08:06:18;;;;;;;;;;;;;;;26.62;28.77;98262.73;110355;1245;59680;-72
2022/07/18 08:08:47;;;;;;;;;;;;;;;26.65;28.62;98259.85;110279;1244;70076;-69
2022/07/18 08:11:16;;;;;;;;;;;;;;;26.49;28.14;98257.41;110256;1247;68670;-73
2022/07/18 08:13:44;;;;;;;;;;;;;;;26.83;27.57;98260.40;110215;1247;67899;-71
2022/07/18 08:16:14;;;;;;;;;;;;;;;26.96;27.86;98263.46;110238;1244;59746;-72
2022/07/18 08:18:42;;;;;;;;;;;;;;;27.03;27.31;98260.89;110455;1244;59633;-72
2022/07/18 08:21:12;;;;;;;;;;;;;;;27.04;27.66;98256.61;110293;1245;71549;-73
2022/07/18 08:23:42;;;;;;;;;;;;;;;27.03;27.79;98257.21;110197;1248;67046;-71
2022/07/18 08:26:11;;;;;;;;;;;;;;;27.02;27.29;98257.25;110378;1244;69411;-71
2022/07/18 08:28:40;;;;;;;;;;;;;;;26.76;26.98;98255.43;110423;1244;59752;-73
2022/07/18 08:31:09;;;;;;;;;;;;;;;27.00;27.97;98255.77;110507;1244;59708;-71
2022/07/18 08:33:38;;;;;;;;;;;;;;;27.39;27.33;98255.39;110494;1244;71866;-70
2022/07/18 08:36:11;;;;;;;;;;;;;;;27.56;26.73;98253.13;110323;1245;68425;-73
2022/07/18 08:38:40;;;;;;;;;;;;;;;28.08;24.67;98246.89;110554;1246;69211;-72
2022/07/18 08:41:09;;;;;;;;;;;;;;;28.26;25.15;98249.05;110460;1244;59732;-72
2022/07/18 08:43:39;;;;;;;;;;;;;;;28.48;23.43;98243.61;110234;1247;59691;-72
2022/07/18 08:46:09;;;;;;;;;;;;;;;28.54;23.34;98242.48;110503;1244;70769;-73
2022/07/18 08:48:39;;;;;;;;;;;;;;;28.48;23.78;98241.73;110282;1245;67630;-72
2022/07/18 08:51:08;;;;;;;;;;;;;;;28.47;23.95;98244.71;110263;1247;69458;-71
2022/07/18 08:53:37;;;;;;;;;;;;;;;28.56;23.65;98243.39;110316;1247;59766;-73
2022/07/18 08:56:06;;;;;;;;;;;;;;;28.55;24.26;98243.23;110386;1245;59677;-72
2022/07/18 08:58:36;;;;;;;;;;;;;;;28.44;23.31;98243.38;110390;1245;71537;-71
2022/07/18 09:01:13;;;;;;;;;;;;;;;28.41;23.33;98243.05;110471;1244;66883;-71
2022/07/18 09:03:42;;;;;;;;;;;;;;;28.72;23.60;98236.93;110439;1244;67529;-72
2022/07/18 09:06:13;;;;;;;;;;;;;;;29.04;22.76;98238.73;110412;1244;59723;-71
2022/07/18 09:08:58;;;;;;;;;;;;;;;29.05;23.03;98238.59;110571;1244;59743;-71
2022/07/18 09:11:28;;;;;;;;;;;;;;;29.28;22.41;98232.86;110201;1247;71006;-72
2022/07/18 09:14:33;;;;;;;;;;;;;;;29.01;23.64;98234.95;110310;1246;68176;-71
2022/07/18 09:17:13;;;;;;;;;;;;;;;28.79;23.72;98234.08;110277;1244;68342;-72
2022/07/18 09:19:57;;;;;;;;;;;;;;;29.24;22.84;98232.14;110349;1245;59680;-71
2022/07/18 09:22:27;;;;;;;;;;;;;;;29.42;21.51;98235.44;110287;1247;59701;-71
2022/07/18 09:24:58;;;;;;;;;;;;;;;29.65;20.57;98235.55;110382;1245;71620;-72
2022/07/18 09:27:29;;;;;;;;;;;;;;;29.41;21.65;98229.82;110154;1247;67949;-71
2022/07/18 09:30:16;;;;;;;;;;;;;;;29.03;22.67;98227.30;110486;1244;69421;-72
2022/07/18 09:32:51;;;;;;;;;;;;;;;29.52;21.88;98228.51;110206;1247;59682;-71
2022/07/18 09:35:27;;;;;;;;;;;;;;;29.77;20.85;98223.30;110373;1244;59680;-72
2022/07/18 09:37:59;;;;;;;;;;;;;;;29.64;21.96;98224.81;110207;1247;71216;-72
2022/07/18 09:40:30;;;;;;;;;;;;;;;29.81;21.50;98222.41;110413;1244;68559;-72
2022/07/18 09:43:01;;;;;;;;;;;;;;;29.72;21.93;98217.58;110303;1247;68629;-73
2022/07/18 09:45:31;;;;;;;;;;;;;;;29.91;21.66;98218.60;110401;1244;59749;-73
2022/07/18 09:48:02;;;;;;;;;;;;;;;30.41;20.27;98215.98;110241;1247;59672;-72
2022/07/18 09:50:33;;;;;;;;;;;;;;;30.60;20.49;98220.36;110284;1247;72264;-72
2022/07/18 09:53:04;;;;;;;;;;;;;;;30.78;18.45;98214.60;110601;1244;68545;-73
2022/07/18 09:55:54;;;;;;;;;;;;;;;30.56;18.59;98210.09;110543;1244;68675;-71
2022/07/18 09:58:25;;;;;;;;;;;;;;;30.43;17.76;98208.73;110389;1244;59720;-73
2022/07/18 10:00:56;;;;;;;;;;;;;;;30.37;18.10;98205.63;110467;1244;59681;-71
2022/07/18 10:03:25;;;;;;;;;;;;;;;30.07;18.69;98198.67;110289;1245;71002;-73
2022/07/18 10:05:56;;;;;;;;;;;;;;;30.45;18.41;98195.79;110292;1244;68562;-72
2022/07/18 10:08:28;;;;;;;;;;;;;;;30.39;18.70;98196.16;110508;1244;68625;-71
2022/07/18 10:10:59;;;;;;;;;;;;;;;30.33;18.74;98192.14;110183;1247;59757;-71
2022/07/18 10:13:30;;;;;;;;;;;;;;;30.12;19.96;98192.93;110500;1245;59738;-72
2022/07/18 10:15:59;;;;;;;;;;;;;;;30.19;20.86;98190.41;110484;1244;71500;-72
2022/07/18 10:18:29;;;;;;;;;;;;;;;30.41;20.22;98186.19;110398;1244;68836;-72
2022/07/18 10:21:07;;;;;;;;;;;;;;;30.40;20.75;98186.54;110465;1244;69244;-71
2022/07/18 10:23:35;;;;;;;;;;;;;;;30.05;20.37;98184.11;110517;1244;59766;-72
2022/07/18 10:26:10;;;;;;;;;;;;;;;29.78;21.14;98177.66;110276;1244;59689;-73
2022/07/18 10:28:54;;;;;;;;;;;;;;;29.26;21.34;98178.90;110427;1245;71585;-72
2022/07/18 10:31:28;;;;;;;;;;;;;;;29.08;21.61;98173.31;110416;1245;68419;-70
2022/07/18 10:34:18;;;;;;;;;;;;;;;29.36;22.13;98170.17;110363;1245;69890;-73
2022/07/18 10:36:50;;;;;;;;;;;;;;;29.41;21.73;98164.44;110329;1247;59730;-73
2022/07/18 10:39:23;;;;;;;;;;;;;;;29.37;21.95;98168.84;110288;1247;59630;-72
2022/07/18 10:41:57;;;;;;;;;;;;;;;29.42;21.75;98166.14;110369;1246;71687;-72
2022/07/18 10:44:30;;;;;;;;;;;;;;;29.27;20.86;98164.77;110304;1247;68569;-74
2022/07/18 10:49:57;;;;;;;;;;;;;;;28.89;22.62;98156.08;110281;1247;59753;-72
2022/07/18 10:52:26;;;;;;;;;;;;;;;28.75;23.17;98160.00;110584;1247;59729;-71
2022/07/18 10:55:22;;;;;;;;;;;;;;;28.85;22.13;98158.48;110633;1244;70723;-73
2022/07/18 10:57:50;;;;;;;;;;;;;;;28.50;21.44;98158.58;110268;1247;68754;-71
2022/07/18 11:00:27;;;;;;;;;;;;;;;28.37;21.84;98156.09;110262;1247;68668;-71
2022/07/18 11:03:05;;;;;;;;;;;;;;;27.58;23.73;98154.77;110259;1247;60011;-73
2022/07/18 11:05:35;;;;;;;;;;;;;;;27.68;23.89;98142.04;110519;1247;59728;-72
2022/07/18 11:08:08;;;;;;;;;;;;;;;26.85;24.29;98149.08;110289;1247;70849;-72
2022/07/18 11:10:49;;;;;;;;;;;;;;;26.35;24.48;98141.73;110219;1247;68618;-73
2022/07/18 11:13:33;;;;;;;;;;;;;;;26.47;24.26;98152.36;110266;1247;69426;-72
2022/07/18 11:16:09;;;;;;;;;;;;;;;27.08;24.85;98145.99;110447;1245;59760;-72
2022/07/18 11:18:39;;;;;;;;;;;;;;;27.81;23.61;98144.64;110503;1244;59712;-74
2022/07/18 11:21:21;;;;;;;;;;;;;;;28.20;23.36;98143.55;110310;1245;71552;-73
2022/07/18 11:23:52;;;;;;;;;;;;;;;28.50;22.06;98143.27;110390;1247;66800;-71
2022/07/18 11:26:22;;;;;;;;;;;;;;;28.54;23.07;98143.68;110212;1247;68614;-73
2022/07/18 11:28:58;;;;;;;;;;;;;;;28.49;22.62;98137.52;110235;1247;59710;-72
2022/07/18 11:31:28;;;;;;;;;;;;;;;27.98;22.22;98131.83;110390;1247;59610;-73
2022/07/18 11:33:59;;;;;;;;;;;;;;;27.43;23.23;98134.75;110264;1247;70815;-71
2022/07/18 11:36:30;;;;;;;;;;;;;;;27.05;23.66;98136.11;110567;1244;68593;-73
2022/07/18 11:39:00;;;;;;;;;;;;;;;27.14;24.11;98133.09;110331;1247;68641;-73
2022/07/18 11:41:32;;;;;;;;;;;;;;;27.50;23.46;98126.86;110387;1246;59745;-72
2022/07/18 11:44:02;;;;;;;;;;;;;;;27.92;22.90;98121.48;110573;1247;59692;-73
2022/07/18 11:46:30;;;;;;;;;;;;;;;28.13;21.68;98122.25;110255;1247;70975;-72
2022/07/18 11:48:59;;;;;;;;;;;;;;;28.44;23.26;98113.24;110549;1247;67814;-72
2022/07/18 11:51:39;;;;;;;;;;;;;;;28.71;22.00;98110.27;110533;1244;68438;-73
2022/07/18 11:54:08;;;;;;;;;;;;;;;28.86;21.77;98120.00;110179;1246;59703;-73
2022/07/18 11:56:48;;;;;;;;;;;;;;;28.99;21.67;98123.24;110312;1247;59650;-73
2022/07/18 11:59:17;;;;;;;;;;;;;;;29.19;20.84;98119.41;110144;1248;70631;-74
2022/07/18 12:01:52;;;;;;;;;;;;;;;29.28;21.30;98111.93;110366;1246;67630;-72
2022/07/18 12:04:22;;;;;;;;;;;;;;;29.23;21.38;98112.98;110189;1248;69391;-73
2022/07/18 12:07:09;;;;;;;;;;;;;;;29.28;21.22;98107.25;110269;1247;59759;-73
2022/07/18 12:09:38;;;;;;;;;;;;;;;29.33;20.98;98102.46;110466;1247;59689;-72
2022/07/18 12:12:10;;;;;;;;;;;;;;;29.35;20.84;98100.34;110422;1245;71805;-72
2022/07/18 12:14:53;;;;;;;;;;;;;;;29.50;20.55;98095.55;110509;1244;67663;-72
2022/07/18 12:17:22;;;;;;;;;;;;;;;29.32;20.24;98092.89;110347;1247;69536;-72
2022/07/18 12:19:51;;;;;;;;;;;;;;;29.22;20.88;98094.22;110352;1247;59716;-73
2022/07/18 12:22:20;;;;;;;;;;;;;;;29.37;21.44;98098.92;110197;1247;59613;-72
2022/07/18 12:24:57;;;;;;;;;;;;;;;29.44;21.10;98091.92;110286;1247;71508;-71
2022/07/18 12:27:29;;;;;;;;;;;;;;;29.33;20.81;98097.52;110459;1247;68435;-74
2022/07/18 12:30:02;;;;;;;;;;;;;;;29.07;20.63;98098.84;110576;1246;68822;-71
2022/07/18 12:32:58;;;;;;;;;;;;;;;28.77;20.77;98099.00;110272;1244;59727;-71
2022/07/18 12:35:32;;;;;;;;;;;;;;;29.05;21.96;98096.87;110400;1243;59683;-71
2022/07/18 12:38:04;;;;;;;;;;;;;;;29.12;21.61;98085.77;110469;1244;71416;-71
2022/07/18 12:40:39;;;;;;;;;;;;;;;29.07;21.30;98086.47;110551;1244;67858;-72
2022/07/18 12:43:09;;;;;;;;;;;;;;;29.24;19.81;98079.64;110407;1245;69587;-73
2022/07/18 12:45:38;;;;;;;;;;;;;;;29.11;19.80;98081.23;110424;1247;59745;-73
2022/07/18 12:48:09;;;;;;;;;;;;;;;29.19;19.96;98077.05;110495;1244;60553;-73
2022/07/18 12:50:38;;;;;;;;;;;;;;;28.99;19.93;98075.92;110416;1247;71563;-72
2022/07/18 12:53:07;;;;;;;;;;;;;;;28.83;20.41;98079.39;110387;1247;68648;-73
2022/07/18 12:55:37;;;;;;;;;;;;;;;28.64;20.25;98080.59;110148;1247;68646;-72
2022/07/18 12:58:06;;;;;;;;;;;;;;;28.58;21.11;98081.04;110565;1244;59669;-72
2022/07/18 13:00:38;;;;;;;;;;;;;;;28.79;21.13;98079.04;110566;1245;59678;-72
2022/07/18 13:03:07;;;;;;;;;;;;;;;29.04;20.60;98076.65;110193;1247;72157;-71